Wetterdaten: Woche 30.05.16 - 05.06.16 (KW22)
Datum Zeit Auen-Temp. Temp gefhlt Luftfeuchte Luftdruck Regen Wind Richtung Sonnenschein Taupunkt Windben
30.05.2016 00:00 11,6 C 11,4 C 85 % 1008,2 hPa 0,7 mm 0,1 km/h (0 Bft) N 0,00 h 9,2 C 0,0 km/h (0 Bft)
30.05.2016 01:00 11,3 C 11,2 C 86 % 1008,2 hPa 0,0 mm 0,6 km/h (0 Bft) SW 0,00 h 9,1 C 0,9 km/h (0 Bft)
30.05.2016 02:00 10,5 C 10,2 C 86 % 1007,7 hPa 0,0 mm 0,6 km/h (0 Bft) S-SO 0,00 h 8,2 C 0,4 km/h (0 Bft)
30.05.2016 03:00 9,7 C 9,4 C 86 % 1007,4 hPa 0,0 mm 0,3 km/h (0 Bft) O-SO 0,00 h 7,5 C 0,8 km/h (0 Bft)
30.05.2016 04:00 9,8 C 9,7 C 87 % 1007,5 hPa 0,0 mm 0,6 km/h (0 Bft) N-NO 0,00 h 7,7 C 0,8 km/h (0 Bft)
30.05.2016 05:00 10,1 C 10,0 C 87 % 1007,8 hPa 0,0 mm 2,2 km/h (1 Bft) SW 0,00 h 8,0 C 3,5 km/h (1 Bft)
30.05.2016 06:00 10,6 C 10,6 C 87 % 1008,2 hPa 0,0 mm 0,9 km/h (0 Bft) SW 0,00 h 8,5 C 1,9 km/h (1 Bft)
30.05.2016 07:00 11,6 C 12,0 C 86 % 1008,4 hPa 0,0 mm 1,8 km/h (1 Bft) S 0,00 h 9,3 C 1,6 km/h (1 Bft)
30.05.2016 08:00 13,3 C 15,4 C 84 % 1008,5 hPa 0,0 mm 2,4 km/h (1 Bft) W-SW 0,25 h 10,6 C 4,0 km/h (1 Bft)
30.05.2016 09:00 15,5 C 19,9 C 77 % 1008,9 hPa 0,0 mm 5,8 km/h (2 Bft) W-SW 0,93 h 11,4 C 9,2 km/h (2 Bft)
30.05.2016 10:00 16,1 C 19,8 C 70 % 1009,3 hPa 0,0 mm 7,9 km/h (2 Bft) W 0,83 h 10,7 C 13,1 km/h (3 Bft)
30.05.2016 11:00 17,5 C 21,5 C 69 % 1009,5 hPa 0,0 mm 8,8 km/h (2 Bft) W-SW 0,58 h 11,6 C 10,8 km/h (2 Bft)
30.05.2016 12:00 18,1 C 22,1 C 62 % 1010,2 hPa 0,0 mm 10,1 km/h (2 Bft) W-SW 0,75 h 10,6 C 14,8 km/h (3 Bft)
30.05.2016 13:00 18,0 C 21,3 C 59 % 1009,9 hPa 0,0 mm 13,4 km/h (3 Bft) W 0,42 h 9,8 C 19,3 km/h (3 Bft)
30.05.2016 14:00 17,7 C 20,3 C 58 % 1009,6 hPa 0,0 mm 8,9 km/h (2 Bft) W 0,33 h 9,4 C 11,4 km/h (2 Bft)
30.05.2016 15:00 16,1 C 16,6 C 64 % 1009,9 hPa 0,7 mm 3,0 km/h (1 Bft) N-NO 0,00 h 9,2 C 3,2 km/h (1 Bft)
30.05.2016 16:00 14,3 C 14,3 C 77 % 1009,9 hPa 0,7 mm 0,4 km/h (0 Bft) N-NO 0,00 h 10,3 C 0,4 km/h (0 Bft)
30.05.2016 17:00 12,8 C 12,7 C 81 % 1010,3 hPa 2,1 mm 0,1 km/h (0 Bft) N 0,00 h 9,6 C 0,3 km/h (0 Bft)
30.05.2016 18:00 11,9 C 11,8 C 83 % 1010,7 hPa 2,1 mm 0,0 km/h (0 Bft) N 0,00 h 9,1 C 0,0 km/h (0 Bft)
30.05.2016 19:00 11,5 C 11,5 C 84 % 1010,8 hPa 0,7 mm 0,0 km/h (0 Bft) N 0,00 h 9,0 C 0,0 km/h (0 Bft)
30.05.2016 20:00 11,1 C 11,1 C 85 % 1011,1 hPa 0,0 mm 0,0 km/h (0 Bft) N 0,00 h 8,7 C 0,0 km/h (0 Bft)
30.05.2016 21:00 10,7 C 10,6 C 86 % 1011,3 hPa 0,0 mm 0,0 km/h (0 Bft) N 0,00 h 8,5 C 0,0 km/h (0 Bft)
30.05.2016 22:00 10,5 C 10,5 C 86 % 1011,5 hPa 0,0 mm 0,0 km/h (0 Bft) N 0,00 h 8,3 C 0,0 km/h (0 Bft)
30.05.2016 23:00 10,5 C 10,4 C 86 % 1011,5 hPa 0,0 mm 0,0 km/h (0 Bft) N 0,00 h 8,3 C 0,0 km/h (0 Bft)
31.05.2016 00:00 10,3 C 10,1 C 86 % 1011,4 hPa 0,0 mm 0,0 km/h (0 Bft) N 0,00 h 8,0 C 0,0 km/h (0 Bft)
31.05.2016 01:00 10,1 C 9,9 C 87 % 1011,4 hPa 0,0 mm 0,0 km/h (0 Bft) N 0,00 h 8,0 C 0,0 km/h (0 Bft)
31.05.2016 02:00 9,8 C 9,6 C 87 % 1011,0 hPa 0,0 mm 0,1 km/h (0 Bft) N 0,00 h 7,7 C 0,7 km/h (0 Bft)
31.05.2016 03:00 9,4 C 9,2 C 87 % 1011,0 hPa 0,0 mm 0,0 km/h (0 Bft) N 0,00 h 7,4 C 0,0 km/h (0 Bft)
31.05.2016 04:00 9,0 C 8,7 C 87 % 1011,0 hPa 0,0 mm 0,0 km/h (0 Bft) N 0,00 h 6,9 C 0,0 km/h (0 Bft)
31.05.2016 05:00 8,4 C 8,2 C 87 % 1011,2 hPa 0,7 mm 0,0 km/h (0 Bft) S 0,00 h 6,4 C 0,0 km/h (0 Bft)
31.05.2016 06:00 9,6 C 10,2 C 87 % 1011,4 hPa 0,0 mm 0,8 km/h (0 Bft) N-NO 0,10 h 7,6 C 1,4 km/h (1 Bft)
31.05.2016 07:00 11,8 C 15,1 C 86 % 1012,1 hPa 0,0 mm 0,0 km/h (0 Bft) N 0,82 h 9,5 C 0,0 km/h (0 Bft)
31.05.2016 08:00 13,7 C 17,3 C 81 % 1012,3 hPa 0,0 mm 1,1 km/h (0 Bft) O-NO 0,83 h 10,6 C 2,7 km/h (1 Bft)
31.05.2016 09:00 15,3 C 20,3 C 72 % 1012,8 hPa 0,0 mm 5,7 km/h (1 Bft) N-NO 1,03 h 10,3 C 8,4 km/h (2 Bft)
31.05.2016 10:00 15,1 C 18,3 C 70 % 1013,4 hPa 0,0 mm 7,5 km/h (2 Bft) N-NO 0,97 h 9,6 C 10,2 km/h (2 Bft)
31.05.2016 11:00 15,5 C 18,8 C 70 % 1013,6 hPa 0,0 mm 6,0 km/h (2 Bft) N-NO 1,00 h 10,2 C 8,7 km/h (2 Bft)
31.05.2016 12:00 15,8 C 18,3 C 70 % 1013,7 hPa 0,0 mm 7,1 km/h (2 Bft) NO 0,63 h 10,2 C 9,7 km/h (2 Bft)
31.05.2016 13:00 16,0 C 18,1 C 69 % 1013,6 hPa 0,0 mm 7,6 km/h (2 Bft) N-NO 0,28 h 10,2 C 10,4 km/h (2 Bft)
31.05.2016 14:00 14,2 C 14,0 C 74 % 1013,5 hPa 0,0 mm 4,0 km/h (1 Bft) S 0,00 h 9,6 C 5,2 km/h (1 Bft)
31.05.2016 15:00 12,4 C 12,5 C 81 % 1013,5 hPa 8,2 mm 0,2 km/h (0 Bft) N 0,00 h 9,3 C 0,0 km/h (0 Bft)
31.05.2016 16:00 12,5 C 12,8 C 84 % 1013,4 hPa 1,4 mm 0,3 km/h (0 Bft) S-SW 0,00 h 10,0 C 0,8 km/h (0 Bft)
31.05.2016 17:00 13,2 C 13,6 C 84 % 1013,1 hPa 0,0 mm 0,0 km/h (0 Bft) N 0,00 h 10,6 C 0,0 km/h (0 Bft)
31.05.2016 18:00 14,0 C 14,3 C 83 % 1013,1 hPa 0,0 mm 0,1 km/h (0 Bft) N 0,00 h 11,1 C 0,0 km/h (0 Bft)
31.05.2016 19:00 13,5 C 13,6 C 83 % 1013,1 hPa 0,0 mm 0,0 km/h (0 Bft) N 0,00 h 10,7 C 0,0 km/h (0 Bft)
31.05.2016 20:00 12,8 C 12,8 C 85 % 1013,3 hPa 0,0 mm 0,0 km/h (0 Bft) N 0,00 h 10,4 C 0,0 km/h (0 Bft)
31.05.2016 21:00 12,0 C 11,9 C 86 % 1014,0 hPa 0,7 mm 0,0 km/h (0 Bft) N 0,00 h 9,7 C 0,0 km/h (0 Bft)
31.05.2016 22:00 10,9 C 10,7 C 86 % 1014,1 hPa 0,0 mm 0,0 km/h (0 Bft) N 0,00 h 8,6 C 0,0 km/h (0 Bft)
31.05.2016 23:00 10,6 C 10,5 C 87 % 1014,3 hPa 0,7 mm 0,0 km/h (0 Bft) N 0,00 h 8,4 C 0,0 km/h (0 Bft)
01.06.2016 00:00 10,5 C 10,4 C 87 % 1014,4 hPa 0,0 mm 0,1 km/h (0 Bft) N 0,00 h 8,4 C 0,0 km/h (0 Bft)
01.06.2016 01:00 10,5 C 10,3 C 87 % 1014,2 hPa 0,7 mm 3,0 km/h (1 Bft) W-SW 0,00 h 8,4 C 4,0 km/h (1 Bft)
01.06.2016 02:00 10,5 C 10,4 C 87 % 1014,1 hPa 0,0 mm 1,5 km/h (1 Bft) SW 0,00 h 8,4 C 2,4 km/h (1 Bft)
01.06.2016 03:00 10,4 C 10,3 C 87 % 1014,1 hPa 0,0 mm 1,2 km/h (1 Bft) SO 0,00 h 8,3 C 3,3 km/h (1 Bft)
01.06.2016 04:00 10,3 C 10,1 C 87 % 1014,2 hPa 2,7 mm 1,0 km/h (0 Bft) W-SW 0,00 h 8,2 C 3,8 km/h (1 Bft)
01.06.2016 05:00 10,3 C 10,1 C 87 % 1014,2 hPa 0,7 mm 0,1 km/h (0 Bft) N 0,00 h 8,2 C 0,0 km/h (0 Bft)
01.06.2016 06:00 10,4 C 10,3 C 87 % 1014,2 hPa 0,0 mm 1,8 km/h (1 Bft) S 0,00 h 8,3 C 2,4 km/h (1 Bft)
01.06.2016 07:00 10,5 C 10,5 C 87 % 1014,5 hPa 0,7 mm 1,4 km/h (1 Bft) SW 0,00 h 8,4 C 1,5 km/h (1 Bft)
01.06.2016 08:00 11,1 C 11,2 C 87 % 1014,7 hPa 0,0 mm 0,9 km/h (0 Bft) S 0,00 h 9,0 C 1,2 km/h (1 Bft)
01.06.2016 09:00 12,2 C 12,9 C 87 % 1015,0 hPa 0,0 mm 0,9 km/h (0 Bft) W-NW 0,00 h 10,1 C 1,6 km/h (1 Bft)
01.06.2016 10:00 13,3 C 15,8 C 84 % 1015,1 hPa 0,0 mm 4,8 km/h (1 Bft) W-SW 0,25 h 10,7 C 7,4 km/h (2 Bft)
01.06.2016 11:00 14,2 C 17,4 C 79 % 1015,3 hPa 0,0 mm 4,8 km/h (1 Bft) S 0,58 h 10,6 C 8,7 km/h (2 Bft)
01.06.2016 12:00 14,3 C 16,9 C 76 % 1015,4 hPa 0,0 mm 1,8 km/h (1 Bft) NW 0,50 h 10,1 C 3,8 km/h (1 Bft)
01.06.2016 13:00 16,2 C 20,7 C 72 % 1015,2 hPa 0,7 mm 3,9 km/h (1 Bft) W-NW 0,75 h 11,2 C 7,0 km/h (2 Bft)
01.06.2016 14:00 16,3 C 19,3 C 71 % 1015,0 hPa 0,0 mm 5,0 km/h (1 Bft) W-NW 0,17 h 10,9 C 6,2 km/h (2 Bft)
01.06.2016 15:00 17,5 C 23,4 C 66 % 1014,3 hPa 0,0 mm 4,3 km/h (1 Bft) W-NW 1,00 h 11,1 C 3,9 km/h (1 Bft)
01.06.2016 16:00 17,5 C 20,5 C 61 % 1014,0 hPa 0,0 mm 7,5 km/h (2 Bft) N-NO 0,50 h 9,9 C 9,7 km/h (2 Bft)
01.06.2016 17:00 16,3 C 17,8 C 62 % 1014,0 hPa 0,0 mm 10,3 km/h (2 Bft) NW 0,00 h 9,1 C 13,3 km/h (3 Bft)
01.06.2016 18:00 16,0 C 17,2 C 63 % 1014,1 hPa 0,0 mm 3,9 km/h (1 Bft) NW 0,00 h 9,0 C 4,2 km/h (1 Bft)
01.06.2016 19:00 14,9 C 15,3 C 69 % 1014,0 hPa 0,0 mm 0,3 km/h (0 Bft) SW 0,00 h 9,3 C 0,0 km/h (0 Bft)
01.06.2016 20:00 14,1 C 14,1 C 72 % 1014,1 hPa 0,0 mm 0,4 km/h (0 Bft) SW 0,00 h 9,2 C 0,0 km/h (0 Bft)
01.06.2016 21:00 13,0 C 12,9 C 77 % 1014,1 hPa 0,0 mm 0,9 km/h (0 Bft) O-SO 0,00 h 9,1 C 1,4 km/h (1 Bft)
01.06.2016 22:00 11,9 C 11,6 C 80 % 1014,2 hPa 0,0 mm 0,8 km/h (0 Bft) W 0,00 h 8,6 C 1,6 km/h (1 Bft)
01.06.2016 23:00 11,7 C 11,6 C 82 % 1013,9 hPa 0,0 mm 0,0 km/h (0 Bft) N 0,00 h 8,7 C 0,0 km/h (0 Bft)
02.06.2016 00:00 10,5 C 10,1 C 83 % 1013,6 hPa 0,0 mm 0,0 km/h (0 Bft) N 0,00 h 7,7 C 0,0 km/h (0 Bft)
02.06.2016 01:00 9,9 C 9,5 C 84 % 1013,1 hPa 0,0 mm 0,1 km/h (0 Bft) N 0,00 h 7,3 C 0,7 km/h (0 Bft)
02.06.2016 02:00 9,1 C 8,9 C 85 % 1012,5 hPa 0,0 mm 0,0 km/h (0 Bft) N 0,00 h 6,7 C 0,0 km/h (0 Bft)
02.06.2016 03:00 9,5 C 9,4 C 86 % 1012,4 hPa 0,0 mm 0,2 km/h (0 Bft) S-SW 0,00 h 7,2 C 0,6 km/h (0 Bft)
02.06.2016 04:00 10,1 C 9,9 C 86 % 1012,3 hPa 0,0 mm 1,5 km/h (1 Bft) S-SO 0,00 h 7,9 C 1,1 km/h (0 Bft)
02.06.2016 05:00 10,1 C 10,0 C 86 % 1012,2 hPa 0,0 mm 1,1 km/h (0 Bft) S 0,00 h 7,9 C 3,3 km/h (1 Bft)
02.06.2016 06:00 10,4 C 10,3 C 86 % 1012,3 hPa 0,7 mm 0,0 km/h (0 Bft) N 0,00 h 8,1 C 0,0 km/h (0 Bft)
02.06.2016 07:00 10,6 C 10,7 C 86 % 1012,5 hPa 1,4 mm 0,0 km/h (0 Bft) N 0,00 h 8,4 C 0,0 km/h (0 Bft)
02.06.2016 08:00 11,1 C 11,3 C 87 % 1012,7 hPa 0,7 mm 0,0 km/h (0 Bft) N 0,00 h 9,0 C 0,0 km/h (0 Bft)
02.06.2016 09:00 12,2 C 12,5 C 87 % 1012,8 hPa 0,7 mm 0,0 km/h (0 Bft) N 0,00 h 10,0 C 0,0 km/h (0 Bft)
02.06.2016 10:00 13,0 C 13,4 C 85 % 1013,0 hPa 0,7 mm 0,0 km/h (0 Bft) N 0,00 h 10,6 C 0,0 km/h (0 Bft)
02.06.2016 11:00 13,9 C 14,5 C 82 % 1013,1 hPa 0,0 mm 4,0 km/h (1 Bft) W-NW 0,00 h 11,0 C 7,3 km/h (2 Bft)
02.06.2016 12:00 14,9 C 18,2 C 79 % 1012,9 hPa 0,0 mm 5,4 km/h (1 Bft) W 0,58 h 11,3 C 7,4 km/h (2 Bft)
02.06.2016 13:00 16,8 C 22,1 C 71 % 1013,0 hPa 0,0 mm 7,0 km/h (2 Bft) NW 1,00 h 11,4 C 10,5 km/h (2 Bft)
02.06.2016 14:00 17,3 C 21,4 C 65 % 1012,8 hPa 0,0 mm 7,2 km/h (2 Bft) NO 0,92 h 10,7 C 8,5 km/h (2 Bft)
02.06.2016 15:00 15,5 C 17,1 C 75 % 1012,7 hPa 0,0 mm 6,3 km/h (2 Bft) NO 0,08 h 11,1 C 7,3 km/h (2 Bft)
02.06.2016 16:00 15,9 C 18,6 C 73 % 1012,2 hPa 0,0 mm 6,0 km/h (2 Bft) NO 0,75 h 11,1 C 7,2 km/h (2 Bft)
02.06.2016 17:00 14,7 C 14,9 C 75 % 1012,4 hPa 6,2 mm 0,2 km/h (0 Bft) N 0,00 h 10,2 C 0,5 km/h (0 Bft)
02.06.2016 18:00 13,4 C 13,5 C 80 % 1012,3 hPa 0,7 mm 0,1 km/h (0 Bft) N 0,00 h 10,1 C 0,0 km/h (0 Bft)
02.06.2016 19:00 13,1 C 13,3 C 83 % 1012,3 hPa 0,0 mm 0,0 km/h (0 Bft) N 0,00 h 10,3 C 0,0 km/h (0 Bft)
02.06.2016 20:00 12,9 C 12,9 C 85 % 1012,5 hPa 0,0 mm 0,0 km/h (0 Bft) N 0,00 h 10,4 C 0,0 km/h (0 Bft)
02.06.2016 21:00 12,4 C 12,3 C 86 % 1012,6 hPa 0,0 mm 0,0 km/h (0 Bft) N 0,00 h 10,1 C 0,0 km/h (0 Bft)
02.06.2016 22:00 11,9 C 11,8 C 86 % 1012,8 hPa 0,7 mm 0,0 km/h (0 Bft) N 0,00 h 9,7 C 0,0 km/h (0 Bft)
02.06.2016 23:00 11,4 C 11,2 C 87 % 1012,9 hPa 0,0 mm 0,6 km/h (0 Bft) S-SO 0,00 h 9,3 C 0,6 km/h (0 Bft)
03.06.2016 00:00 11,1 C 11,0 C 87 % 1012,8 hPa 0,0 mm 0,3 km/h (0 Bft) SW 0,00 h 9,0 C 0,8 km/h (0 Bft)
03.06.2016 01:00 10,7 C 10,6 C 87 % 1012,4 hPa 0,0 mm 0,0 km/h (0 Bft) N 0,00 h 8,6 C 0,8 km/h (0 Bft)
03.06.2016 02:00 10,6 C 10,5 C 87 % 1012,2 hPa 0,0 mm 0,3 km/h (0 Bft) N 0,00 h 8,5 C 0,9 km/h (0 Bft)
03.06.2016 03:00 10,5 C 10,4 C 88 % 1012,0 hPa 0,7 mm 0,0 km/h (0 Bft) N 0,00 h 8,6 C 0,0 km/h (0 Bft)
03.06.2016 04:00 10,5 C 10,4 C 88 % 1012,0 hPa 0,0 mm 0,0 km/h (0 Bft) N 0,00 h 8,6 C 0,0 km/h (0 Bft)
03.06.2016 05:00 10,4 C 10,3 C 88 % 1012,0 hPa 0,0 mm 0,0 km/h (0 Bft) N 0,00 h 8,5 C 0,0 km/h (0 Bft)
03.06.2016 06:00 10,6 C 10,7 C 88 % 1012,0 hPa 0,0 mm 0,1 km/h (0 Bft) N 0,00 h 8,7 C 0,0 km/h (0 Bft)
03.06.2016 07:00 11,1 C 11,4 C 88 % 1012,2 hPa 0,0 mm 0,0 km/h (0 Bft) N 0,00 h 9,2 C 0,0 km/h (0 Bft)
03.06.2016 08:00 12,4 C 13,9 C 88 % 1012,2 hPa 0,0 mm 0,1 km/h (0 Bft) N 0,00 h 10,4 C 0,0 km/h (0 Bft)
03.06.2016 09:00 14,4 C 17,4 C 84 % 1012,4 hPa 0,0 mm 0,2 km/h (0 Bft) NW 0,67 h 11,7 C 0,0 km/h (0 Bft)
03.06.2016 10:00 16,2 C 20,9 C 75 % 1012,5 hPa 0,0 mm 2,1 km/h (1 Bft) W 1,00 h 11,7 C 3,6 km/h (1 Bft)
03.06.2016 11:00 17,1 C 22,1 C 68 % 1012,7 hPa 0,0 mm 4,6 km/h (1 Bft) NW 1,00 h 11,0 C 6,9 km/h (2 Bft)
03.06.2016 12:00 18,0 C 23,1 C 66 % 1012,9 hPa 0,0 mm 5,6 km/h (1 Bft) NW 1,00 h 11,6 C 7,6 km/h (2 Bft)
03.06.2016 13:00 18,6 C 23,7 C 64 % 1012,7 hPa 0,0 mm 4,2 km/h (1 Bft) W 0,75 h 11,8 C 6,5 km/h (2 Bft)
03.06.2016 14:00 18,6 C 22,3 C 64 % 1012,3 hPa 0,0 mm 5,8 km/h (2 Bft) SW 0,58 h 11,7 C 9,8 km/h (2 Bft)
03.06.2016 15:00 17,9 C 19,6 C 69 % 1012,0 hPa 0,0 mm 1,0 km/h (0 Bft) NO 0,08 h 12,2 C 0,0 km/h (0 Bft)
03.06.2016 16:00 14,8 C 14,6 C 76 % 1012,1 hPa 12,4 mm 2,7 km/h (1 Bft) NW 0,00 h 10,5 C 5,0 km/h (1 Bft)
03.06.2016 17:00 12,1 C 11,9 C 83 % 1012,1 hPa 1,4 mm 0,5 km/h (0 Bft) S-SO 0,00 h 9,3 C 1,4 km/h (1 Bft)
03.06.2016 18:00 11,5 C 11,4 C 85 % 1012,4 hPa 2,7 mm 0,4 km/h (0 Bft) S-SO 0,00 h 9,1 C 0,6 km/h (0 Bft)
03.06.2016 19:00 12,0 C 12,1 C 86 % 1012,3 hPa 0,7 mm 0,0 km/h (0 Bft) N 0,00 h 9,7 C 0,0 km/h (0 Bft)
03.06.2016 20:00 12,2 C 12,4 C 86 % 1012,3 hPa 0,0 mm 0,0 km/h (0 Bft) N 0,00 h 10,0 C 0,0 km/h (0 Bft)
03.06.2016 21:00 11,8 C 12,3 C 87 % 1012,4 hPa 0,0 mm 0,0 km/h (0 Bft) N 0,00 h 9,7 C 0,0 km/h (0 Bft)
03.06.2016 22:00 11,3 C 9,3 C 87 % 1012,5 hPa 0,0 mm 0,0 km/h (0 Bft) N 0,00 h 9,3 C 0,0 km/h (0 Bft)
03.06.2016 23:00 11,0 C 7,3 C 87 % 1012,5 hPa 0,0 mm 0,0 km/h (0 Bft) N 0,00 h 8,9 C 0,0 km/h (0 Bft)
04.06.2016 00:00 10,6 C 7,1 C 87 % 1012,6 hPa 0,0 mm 0,0 km/h (0 Bft) N 0,00 h 8,6 C 0,0 km/h (0 Bft)
04.06.2016 01:00 10,6 C 7,1 C 88 % 1012,4 hPa 0,0 mm 0,0 km/h (0 Bft) N 0,00 h 8,7 C 0,0 km/h (0 Bft)
04.06.2016 02:00 10,6 C 7,1 C 88 % 1012,6 hPa 0,0 mm 0,0 km/h (0 Bft) N 0,00 h 8,7 C 0,0 km/h (0 Bft)
04.06.2016 03:00 10,9 C 7,3 C 88 % 1012,6 hPa 0,0 mm 0,0 km/h (0 Bft) N 0,00 h 9,0 C 0,0 km/h (0 Bft)
04.06.2016 04:00 10,7 C 7,2 C 88 % 1012,5 hPa 0,0 mm 0,0 km/h (0 Bft) N 0,00 h 8,8 C 0,0 km/h (0 Bft)
04.06.2016 05:00 10,8 C 7,3 C 88 % 1012,8 hPa 0,0 mm 0,0 km/h (0 Bft) N 0,00 h 8,9 C 0,0 km/h (0 Bft)
04.06.2016 06:00 11,0 C 7,5 C 88 % 1013,0 hPa 0,0 mm 0,0 km/h (0 Bft) N 0,00 h 9,1 C 0,0 km/h (0 Bft)
04.06.2016 07:00 12,0 C 8,3 C 88 % 1013,2 hPa 0,0 mm 0,0 km/h (0 Bft) N 0,00 h 10,2 C 0,0 km/h (0 Bft)
04.06.2016 08:00 14,3 C 9,8 C 87 % 1013,4 hPa 0,0 mm 0,0 km/h (0 Bft) N 0,00 h 12,2 C 0,0 km/h (0 Bft)
04.06.2016 09:00 16,3 C 11,2 C 79 % 1013,7 hPa 0,0 mm 0,0 km/h (0 Bft) N 0,00 h 12,6 C 0,0 km/h (0 Bft)
04.06.2016 10:00 17,5 C 20,0 C 73 % 1014,2 hPa 0,0 mm 4,1 km/h (1 Bft) NW 0,67 h 12,5 C 5,9 km/h (2 Bft)
04.06.2016 11:00 15,2 C 15,6 C 78 % 1014,5 hPa 4,1 mm 1,6 km/h (1 Bft) N-NO 0,00 h 11,4 C 2,4 km/h (1 Bft)
04.06.2016 12:00 16,1 C 18,5 C 78 % 1014,4 hPa 0,0 mm 0,6 km/h (0 Bft) S 0,33 h 12,3 C 0,0 km/h (0 Bft)
04.06.2016 13:00 17,3 C 22,0 C 75 % 1014,3 hPa 0,0 mm 2,8 km/h (1 Bft) N-NO 0,75 h 12,8 C 6,8 km/h (2 Bft)
04.06.2016 14:00 17,9 C 22,5 C 67 % 1014,5 hPa 0,0 mm 5,2 km/h (1 Bft) O-NO 1,00 h 11,6 C 6,8 km/h (2 Bft)
04.06.2016 15:00 17,2 C 19,9 C 67 % 1014,4 hPa 0,0 mm 5,3 km/h (1 Bft) NO 0,67 h 11,1 C 6,0 km/h (2 Bft)
04.06.2016 16:00 17,0 C 19,0 C 69 % 1014,2 hPa 0,0 mm 0,8 km/h (0 Bft) N-NO 0,33 h 11,3 C 0,7 km/h (0 Bft)
04.06.2016 17:00 16,3 C 17,5 C 74 % 1014,2 hPa 0,0 mm 5,7 km/h (1 Bft) W-SW 0,00 h 11,5 C 10,2 km/h (2 Bft)
04.06.2016 18:00 16,9 C 18,8 C 70 % 1014,2 hPa 0,0 mm 7,9 km/h (2 Bft) W-SW 0,00 h 11,4 C 9,0 km/h (2 Bft)
04.06.2016 19:00 16,7 C 18,5 C 70 % 1014,3 hPa 0,0 mm 2,0 km/h (1 Bft) W-SW 0,08 h 11,2 C 2,1 km/h (1 Bft)
04.06.2016 20:00 15,8 C 16,2 C 74 % 1014,6 hPa 0,0 mm 0,1 km/h (0 Bft) N 0,00 h 11,0 C 0,0 km/h (0 Bft)
04.06.2016 21:00 14,1 C 14,0 C 79 % 1015,1 hPa 0,0 mm 0,4 km/h (0 Bft) N-NO 0,00 h 10,6 C 0,6 km/h (0 Bft)
04.06.2016 22:00 13,5 C 13,3 C 82 % 1015,7 hPa 0,0 mm 0,2 km/h (0 Bft) N 0,00 h 10,4 C 0,3 km/h (0 Bft)
04.06.2016 23:00 13,0 C 12,9 C 84 % 1015,8 hPa 0,0 mm 0,1 km/h (0 Bft) N 0,00 h 10,3 C 0,4 km/h (0 Bft)
05.06.2016 00:00 12,7 C 12,7 C 85 % 1015,9 hPa 0,0 mm 1,5 km/h (1 Bft) SW 0,00 h 10,2 C 3,4 km/h (1 Bft)
05.06.2016 01:00 12,6 C 12,5 C 84 % 1016,0 hPa 0,7 mm 0,7 km/h (0 Bft) SW 0,00 h 10,0 C 1,2 km/h (1 Bft)
05.06.2016 02:00 12,3 C 12,2 C 85 % 1015,9 hPa 0,0 mm 1,7 km/h (1 Bft) S 0,00 h 9,9 C 1,6 km/h (1 Bft)
05.06.2016 03:00 12,1 C 12,1 C 85 % 1015,6 hPa 0,0 mm 0,4 km/h (0 Bft) SO 0,00 h 9,7 C 1,2 km/h (1 Bft)
05.06.2016 04:00 12,1 C 12,1 C 86 % 1015,5 hPa 2,1 mm 0,6 km/h (0 Bft) SO 0,00 h 9,8 C 0,3 km/h (0 Bft)
05.06.2016 05:00 11,8 C 11,6 C 86 % 1015,9 hPa 5,5 mm 0,0 km/h (0 Bft) N 0,00 h 9,6 C 0,0 km/h (0 Bft)
05.06.2016 06:00 11,6 C 11,5 C 87 % 1016,2 hPa 4,1 mm 0,0 km/h (0 Bft) N 0,00 h 9,5 C 0,0 km/h (0 Bft)
05.06.2016 07:00 11,5 C 11,4 C 87 % 1016,4 hPa 6,9 mm 1,1 km/h (1 Bft) SW 0,00 h 9,4 C 1,1 km/h (1 Bft)
05.06.2016 08:00 12,0 C 12,2 C 88 % 1016,6 hPa 2,1 mm 2,1 km/h (1 Bft) SW 0,00 h 10,0 C 4,3 km/h (1 Bft)
05.06.2016 09:00 12,8 C 13,0 C 87 % 1016,9 hPa 0,0 mm 0,1 km/h (0 Bft) N 0,00 h 10,7 C 0,0 km/h (0 Bft)
05.06.2016 10:00 13,8 C 14,3 C 86 % 1017,2 hPa 0,0 mm 0,5 km/h (0 Bft) NW 0,00 h 11,5 C 0,8 km/h (0 Bft)
05.06.2016 11:00 14,6 C 15,7 C 84 % 1017,9 hPa 0,0 mm 4,5 km/h (1 Bft) W-NW 0,00 h 11,9 C 6,3 km/h (2 Bft)
05.06.2016 12:00 14,3 C 14,6 C 83 % 1018,2 hPa 0,7 mm 1,7 km/h (1 Bft) W-SW 0,00 h 11,5 C 3,5 km/h (1 Bft)
05.06.2016 13:00 16,0 C 19,2 C 80 % 1018,2 hPa 0,0 mm 5,4 km/h (1 Bft) W 0,50 h 12,6 C 8,5 km/h (2 Bft)
05.06.2016 14:00 17,1 C 21,3 C 75 % 1018,1 hPa 0,0 mm 8,4 km/h (2 Bft) NW 0,92 h 12,7 C 10,6 km/h (2 Bft)
05.06.2016 15:00 18,2 C 24,1 C 70 % 1017,7 hPa 0,0 mm 5,0 km/h (1 Bft) W-SW 1,00 h 12,6 C 5,5 km/h (1 Bft)
05.06.2016 16:00 18,3 C 22,4 C 67 % 1017,6 hPa 0,0 mm 2,5 km/h (1 Bft) W-NW 0,83 h 12,0 C 6,2 km/h (2 Bft)
05.06.2016 17:00 17,6 C 19,4 C 68 % 1017,5 hPa 0,0 mm 2,4 km/h (1 Bft) W-NW 0,00 h 11,6 C 2,2 km/h (1 Bft)
05.06.2016 18:00 15,6 C 16,0 C 77 % 1017,6 hPa 0,7 mm 0,0 km/h (0 Bft) N 0,00 h 11,7 C 0,0 km/h (0 Bft)
05.06.2016 19:00 14,2 C 14,0 C 82 % 1017,8 hPa 2,1 mm 0,4 km/h (0 Bft) SW 0,00 h 11,2 C 0,6 km/h (0 Bft)
05.06.2016 20:00 13,5 C 13,3 C 84 % 1018,1 hPa 0,0 mm 0,3 km/h (0 Bft) SW 0,00 h 10,9 C 0,5 km/h (0 Bft)
05.06.2016 21:00 12,7 C 12,4 C 85 % 1018,4 hPa 0,0 mm 0,0 km/h (0 Bft) N 0,00 h 10,2 C 0,0 km/h (0 Bft)
05.06.2016 22:00 11,7 C 11,4 C 86 % 1018,8 hPa 0,0 mm 0,0 km/h (0 Bft) N 0,00 h 9,5 C 0,0 km/h (0 Bft)
05.06.2016 23:00 11,0 C 10,7 C 87 % 1019,0 hPa 0,0 mm 0,0 km/h (0 Bft) N 0,00 h 8,8 C 0,0 km/h (0 Bft)
Min-Datum _ 31.05.16 04.06.16 30.05.16 30.05.16 - 05.06.16 - - 31.05.16 05.06.16
_ Min-Zeit 05:20 00:20 13:55 04:03 - 23:00 - - 05:20 23:00
Minimum _ 8,3 C 6,9 C 56 % 1007,4 hPa - 0,0 km/h (0 Bft) - - 6,3 C 0,0 km/h (0 Bft)
Max-Datum _ 03.06.16 03.06.16 04.06.16 05.06.16 03.06.16 30.05.16 - 05.06.16 04.06.16 30.05.16
_ Max-Zeit 13:50 13:55 07:10 23:50 16:30 13:45 - 16:00 13:45 12:20
Maximum _ 19,9 C 26,6 C 89 % 1019,2 hPa 12,4 mm 16,1 km/h
W (3 Bft)
- 0,08 h 13,8 C 39,0 km/h
W-SW (6 Bft)
Durchschnitt _ 13,1 C 13,9 C 81 % 1013,2 hPa #82,4 mm 1,9 km/h (1 Bft) NW #29:01 h 9,8 C 2,7 km/h (1 Bft)